sensor_id;sensor_type;location;lat;lon;timestamp;P1;P2;P0
69349;PMS5003;64554;43.452;4.934;2023-02-15T00:01:33;80.75;77.75;49.25
69349;PMS5003;64554;43.452;4.934;2023-02-15T00:04:00;75.00;64.20;39.00
69349;PMS5003;64554;43.452;4.934;2023-02-15T00:06:27;76.00;68.00;39.50
69349;PMS5003;64554;43.452;4.934;2023-02-15T00:08:54;77.60;70.80;43.00
69349;PMS5003;64554;43.452;4.934;2023-02-15T00:11:20;77.50;70.25;41.00
69349;PMS5003;64554;43.452;4.934;2023-02-15T00:14:09;77.20;70.00;41.00
69349;PMS5003;64554;43.452;4.934;2023-02-15T00:16:37;74.00;64.50;37.00
69349;PMS5003;64554;43.452;4.934;2023-02-15T00:19:04;69.20;56.60;37.00
69349;PMS5003;64554;43.452;4.934;2023-02-15T00:21:34;71.50;58.00;35.00
69349;PMS5003;64554;43.452;4.934;2023-02-15T00:24:02;71.00;59.50;35.50
69349;PMS5003;64554;43.452;4.934;2023-02-15T00:26:29;67.25;54.50;34.00
69349;PMS5003;64554;43.452;4.934;2023-02-15T00:28:56;69.60;57.60;35.00
69349;PMS5003;64554;43.452;4.934;2023-02-15T00:31:25;70.75;59.00;35.75
69349;PMS5003;64554;43.452;4.934;2023-02-15T00:33:51;69.00;57.00;34.75
69349;PMS5003;64554;43.452;4.934;2023-02-15T00:36:18;69.00;58.00;35.00
69349;PMS5003;64554;43.452;4.934;2023-02-15T00:38:44;70.75;60.75;37.75
69349;PMS5003;64554;43.452;4.934;2023-02-15T00:41:11;70.75;60.00;36.00
69349;PMS5003;64554;43.452;4.934;2023-02-15T00:43:37;70.80;58.80;34.20
69349;PMS5003;64554;43.452;4.934;2023-02-15T00:46:04;68.25;56.25;34.25
69349;PMS5003;64554;43.452;4.934;2023-02-15T00:48:31;70.00;57.25;34.75
69349;PMS5003;64554;43.452;4.934;2023-02-15T00:50:58;62.00;50.80;33.20
69349;PMS5003;64554;43.452;4.934;2023-02-15T00:53:25;67.60;54.40;33.80
69349;PMS5003;64554;43.452;4.934;2023-02-15T00:55:52;69.00;58.00;35.00
69349;PMS5003;64554;43.452;4.934;2023-02-15T00:58:19;69.67;57.67;36.67
69349;PMS5003;64554;43.452;4.934;2023-02-15T01:00:47;68.60;55.20;34.00
69349;PMS5003;64554;43.452;4.934;2023-02-15T01:03:14;68.25;55.50;34.00
69349;PMS5003;64554;43.452;4.934;2023-02-15T01:05:41;68.40;54.00;34.60
69349;PMS5003;64554;43.452;4.934;2023-02-15T01:08:08;69.00;56.75;35.25
69349;PMS5003;64554;43.452;4.934;2023-02-15T01:10:35;72.40;61.40;37.00
69349;PMS5003;64554;43.452;4.934;2023-02-15T01:13:02;69.00;58.00;35.00
69349;PMS5003;64554;43.452;4.934;2023-02-15T01:15:29;71.25;59.75;35.00
69349;PMS5003;64554;43.452;4.934;2023-02-15T01:17:55;68.75;56.50;35.00
69349;PMS5003;64554;43.452;4.934;2023-02-15T01:20:26;71.00;59.00;35.40
69349;PMS5003;64554;43.452;4.934;2023-02-15T01:22:53;71.25;59.50;36.00
69349;PMS5003;64554;43.452;4.934;2023-02-15T01:25:21;74.00;61.00;37.00
69349;PMS5003;64554;43.452;4.934;2023-02-15T01:27:48;73.00;64.00;38.00
69349;PMS5003;64554;43.452;4.934;2023-02-15T01:30:15;72.00;60.40;35.00
69349;PMS5003;64554;43.452;4.934;2023-02-15T01:32:42;72.00;61.20;36.40
69349;PMS5003;64554;43.452;4.934;2023-02-15T01:35:09;73.75;64.50;38.25
69349;PMS5003;64554;43.452;4.934;2023-02-15T01:37:36;71.00;61.00;39.00
69349;PMS5003;64554;43.452;4.934;2023-02-15T01:40:03;73.25;64.25;39.00
69349;PMS5003;64554;43.452;4.934;2023-02-15T01:42:30;75.00;65.00;38.25
69349;PMS5003;64554;43.452;4.934;2023-02-15T01:47:34;72.75;61.25;37.50
69349;PMS5003;64554;43.452;4.934;2023-02-15T01:52:29;71.50;61.25;36.75
69349;PMS5003;64554;43.452;4.934;2023-02-15T01:54:56;76.75;67.50;38.50
69349;PMS5003;64554;43.452;4.934;2023-02-15T01:57:25;71.00;61.25;37.75
69349;PMS5003;64554;43.452;4.934;2023-02-15T01:59:53;70.40;59.40;37.00
69349;PMS5003;64554;43.452;4.934;2023-02-15T02:02:22;75.25;65.50;37.00
69349;PMS5003;64554;43.452;4.934;2023-02-15T02:04:52;77.60;70.40;38.60
69349;PMS5003;64554;43.452;4.934;2023-02-15T02:07:19;74.00;67.75;42.00
69349;PMS5003;64554;43.452;4.934;2023-02-15T02:09:47;74.00;65.25;37.25
69349;PMS5003;64554;43.452;4.934;2023-02-15T02:12:15;74.25;62.50;38.00
69349;PMS5003;64554;43.452;4.934;2023-02-15T02:14:42;73.20;63.00;38.60
69349;PMS5003;64554;43.452;4.934;2023-02-15T02:23:08;73.80;63.40;37.60
69349;PMS5003;64554;43.452;4.934;2023-02-15T02:28:16;72.75;59.75;37.25
69349;PMS5003;64554;43.452;4.934;2023-02-15T02:30:59;71.00;59.50;36.50
69349;PMS5003;64554;43.452;4.934;2023-02-15T02:40:55;74.75;63.50;36.00
69349;PMS5003;64554;43.452;4.934;2023-02-15T02:48:25;73.40;62.60;38.60
69349;PMS5003;64554;43.452;4.934;2023-02-15T02:50:53;76.00;64.50;38.00
69349;PMS5003;64554;43.452;4.934;2023-02-15T02:53:19;72.40;62.00;36.40
69349;PMS5003;64554;43.452;4.934;2023-02-15T02:55:46;73.20;61.00;38.40
69349;PMS5003;64554;43.452;4.934;2023-02-15T03:00:47;74.00;60.67;37.33
69349;PMS5003;64554;43.452;4.934;2023-02-15T03:05:44;71.75;62.00;36.50
69349;PMS5003;64554;43.452;4.934;2023-02-15T03:08:14;70.00;58.50;36.00
69349;PMS5003;64554;43.452;4.934;2023-02-15T03:10:48;72.40;60.00;35.40
69349;PMS5003;64554;43.452;4.934;2023-02-15T03:13:15;72.00;59.75;36.00
69349;PMS5003;64554;43.452;4.934;2023-02-15T03:15:42;72.00;58.00;36.00
69349;PMS5003;64554;43.452;4.934;2023-02-15T03:18:34;70.50;57.50;35.00
69349;PMS5003;64554;43.452;4.934;2023-02-15T03:21:02;72.80;61.80;36.40
69349;PMS5003;64554;43.452;4.934;2023-02-15T03:23:31;70.60;58.80;35.60
69349;PMS5003;64554;43.452;4.934;2023-02-15T03:26:00;72.00;60.67;37.00
69349;PMS5003;64554;43.452;4.934;2023-02-15T03:28:29;73.00;63.75;36.00
69349;PMS5003;64554;43.452;4.934;2023-02-15T03:30:58;74.00;63.00;36.50
69349;PMS5003;64554;43.452;4.934;2023-02-15T03:33:27;74.60;64.40;37.80
69349;PMS5003;64554;43.452;4.934;2023-02-15T03:39:08;73.40;62.00;37.20
69349;PMS5003;64554;43.452;4.934;2023-02-15T03:41:38;73.00;63.00;36.00
69349;PMS5003;64554;43.452;4.934;2023-02-15T03:44:08;74.00;64.50;38.00
69349;PMS5003;64554;43.452;4.934;2023-02-15T03:46:43;74.00;64.00;37.25
69349;PMS5003;64554;43.452;4.934;2023-02-15T03:49:14;71.60;60.20;36.00
69349;PMS5003;64554;43.452;4.934;2023-02-15T03:51:42;72.00;61.00;37.00
69349;PMS5003;64554;43.452;4.934;2023-02-15T03:54:14;71.00;59.50;36.00
69349;PMS5003;64554;43.452;4.934;2023-02-15T03:57:02;72.00;59.50;35.25
69349;PMS5003;64554;43.452;4.934;2023-02-15T03:59:47;73.60;62.20;35.00
69349;PMS5003;64554;43.452;4.934;2023-02-15T04:02:35;72.25;59.75;35.75
69349;PMS5003;64554;43.452;4.934;2023-02-15T04:05:04;74.00;60.50;35.00
69349;PMS5003;64554;43.452;4.934;2023-02-15T04:07:31;69.80;57.20;34.00
69349;PMS5003;64554;43.452;4.934;2023-02-15T04:09:57;67.50;54.00;35.00
69349;PMS5003;64554;43.452;4.934;2023-02-15T04:12:42;72.00;59.75;36.00
69349;PMS5003;64554;43.452;4.934;2023-02-15T04:15:11;66.80;52.60;33.60
69349;PMS5003;64554;43.452;4.934;2023-02-15T04:17:56;69.75;57.00;34.75
69349;PMS5003;64554;43.452;4.934;2023-02-15T04:20:23;73.00;60.80;36.00
69349;PMS5003;64554;43.452;4.934;2023-02-15T04:23:08;71.50;59.00;36.00
69349;PMS5003;64554;43.452;4.934;2023-02-15T04:25:53;74.00;59.60;36.00
69349;PMS5003;64554;43.452;4.934;2023-02-15T04:28:19;67.20;54.40;34.20
69349;PMS5003;64554;43.452;4.934;2023-02-15T04:30:46;69.00;56.40;34.40
69349;PMS5003;64554;43.452;4.934;2023-02-15T04:33:12;71.75;58.00;34.50
69349;PMS5003;64554;43.452;4.934;2023-02-15T04:35:39;71.00;59.50;34.50
69349;PMS5003;64554;43.452;4.934;2023-02-15T04:38:05;67.00;53.00;34.00
69349;PMS5003;64554;43.452;4.934;2023-02-15T04:40:32;72.50;62.50;38.00
69349;PMS5003;64554;43.452;4.934;2023-02-15T04:42:58;67.25;54.25;35.00
69349;PMS5003;64554;43.452;4.934;2023-02-15T04:45:25;66.40;53.40;34.00
69349;PMS5003;64554;43.452;4.934;2023-02-15T04:47:53;69.75;55.75;34.00
69349;PMS5003;64554;43.452;4.934;2023-02-15T04:50:19;68.00;54.00;34.40
69349;PMS5003;64554;43.452;4.934;2023-02-15T04:52:46;70.00;57.50;34.25
69349;PMS5003;64554;43.452;4.934;2023-02-15T04:55:12;68.00;53.75;34.00
69349;PMS5003;64554;43.452;4.934;2023-02-15T04:57:40;71.50;60.25;34.50
69349;PMS5003;64554;43.452;4.934;2023-02-15T05:00:07;67.75;54.25;32.75
69349;PMS5003;64554;43.452;4.934;2023-02-15T05:02:34;67.75;56.00;33.25
69349;PMS5003;64554;43.452;4.934;2023-02-15T05:05:01;66.00;52.60;32.60
69349;PMS5003;64554;43.452;4.934;2023-02-15T05:07:28;69.80;57.20;34.00
69349;PMS5003;64554;43.452;4.934;2023-02-15T05:09:54;70.60;59.40;35.00
69349;PMS5003;64554;43.452;4.934;2023-02-15T05:12:21;68.00;57.00;34.00
69349;PMS5003;64554;43.452;4.934;2023-02-15T05:14:47;71.25;58.50;34.50
69349;PMS5003;64554;43.452;4.934;2023-02-15T05:17:14;71.20;59.40;35.20
69349;PMS5003;64554;43.452;4.934;2023-02-15T05:19:40;72.20;59.00;36.00
69349;PMS5003;64554;43.452;4.934;2023-02-15T05:22:06;72.50;61.25;37.25
69349;PMS5003;64554;43.452;4.934;2023-02-15T05:24:33;71.50;56.50;35.00
69349;PMS5003;64554;43.452;4.934;2023-02-15T05:27:18;73.50;62.50;36.75
69349;PMS5003;64554;43.452;4.934;2023-02-15T05:30:04;69.00;58.40;35.40
69349;PMS5003;64554;43.452;4.934;2023-02-15T05:32:30;69.40;56.60;36.00
69349;PMS5003;64554;43.452;4.934;2023-02-15T05:34:57;71.60;59.20;36.00
69349;PMS5003;64554;43.452;4.934;2023-02-15T05:37:23;69.75;55.75;35.25
69349;PMS5003;64554;43.452;4.934;2023-02-15T05:39:50;69.00;56.00;33.80
69349;PMS5003;64554;43.452;4.934;2023-02-15T05:42:16;69.25;57.00;34.00
69349;PMS5003;64554;43.452;4.934;2023-02-15T05:44:43;71.00;54.50;34.00
69349;PMS5003;64554;43.452;4.934;2023-02-15T05:47:09;72.00;60.50;35.50
69349;PMS5003;64554;43.452;4.934;2023-02-15T05:49:36;72.40;59.60;35.40
69349;PMS5003;64554;43.452;4.934;2023-02-15T05:52:02;72.00;57.50;34.25
69349;PMS5003;64554;43.452;4.934;2023-02-15T05:54:29;75.00;64.00;36.40
69349;PMS5003;64554;43.452;4.934;2023-02-15T05:56:55;69.40;57.20;35.00
69349;PMS5003;64554;43.452;4.934;2023-02-15T05:59:22;69.00;54.00;34.60
69349;PMS5003;64554;43.452;4.934;2023-02-15T06:01:48;69.00;54.00;35.00
69349;PMS5003;64554;43.452;4.934;2023-02-15T06:04:15;69.50;57.25;35.50
69349;PMS5003;64554;43.452;4.934;2023-02-15T06:06:41;70.00;56.00;35.00
69349;PMS5003;64554;43.452;4.934;2023-02-15T06:09:09;67.60;55.00;33.80
69349;PMS5003;64554;43.452;4.934;2023-02-15T06:11:36;69.40;56.40;33.80
69349;PMS5003;64554;43.452;4.934;2023-02-15T06:14:02;69.00;56.75;33.75
69349;PMS5003;64554;43.452;4.934;2023-02-15T06:16:29;69.00;56.50;34.00
69349;PMS5003;64554;43.452;4.934;2023-02-15T06:18:55;64.50;51.00;34.00
69349;PMS5003;64554;43.452;4.934;2023-02-15T06:21:22;66.50;52.50;34.00
69349;PMS5003;64554;43.452;4.934;2023-02-15T06:23:49;68.00;54.75;34.00
69349;PMS5003;64554;43.452;4.934;2023-02-15T06:26:15;284.40;256.00;138.40
69349;PMS5003;64554;43.452;4.934;2023-02-15T06:28:42;169.00;151.20;85.60
69349;PMS5003;64554;43.452;4.934;2023-02-15T06:31:08;127.00;112.75;63.00
69349;PMS5003;64554;43.452;4.934;2023-02-15T06:33:35;86.75;77.00;43.75
69349;PMS5003;64554;43.452;4.934;2023-02-15T06:36:02;90.80;84.40;51.20
69349;PMS5003;64554;43.452;4.934;2023-02-15T06:38:30;121.25;109.00;64.00
69349;PMS5003;64554;43.452;4.934;2023-02-15T06:40:56;120.00;108.80;68.00
69349;PMS5003;64554;43.452;4.934;2023-02-15T06:43:23;157.75;145.50;79.00
69349;PMS5003;64554;43.452;4.934;2023-02-15T06:45:49;77.80;69.60;42.40
69349;PMS5003;64554;43.452;4.934;2023-02-15T06:48:16;79.50;69.00;43.00
69349;PMS5003;64554;43.452;4.934;2023-02-15T06:50:42;78.00;68.50;41.75
69349;PMS5003;64554;43.452;4.934;2023-02-15T06:53:09;68.00;55.00;35.00
69349;PMS5003;64554;43.452;4.934;2023-02-15T06:55:36;75.50;64.25;40.75
69349;PMS5003;64554;43.452;4.934;2023-02-15T06:58:02;70.75;57.25;35.00
69349;PMS5003;64554;43.452;4.934;2023-02-15T07:00:29;77.00;63.40;37.00
69349;PMS5003;64554;43.452;4.934;2023-02-15T07:02:56;66.50;52.75;31.75
69349;PMS5003;64554;43.452;4.934;2023-02-15T07:05:24;76.00;60.25;35.00
69349;PMS5003;64554;43.452;4.934;2023-02-15T07:07:50;65.75;52.00;32.00
69349;PMS5003;64554;43.452;4.934;2023-02-15T07:10:17;73.25;60.50;35.25
69349;PMS5003;64554;43.452;4.934;2023-02-15T07:12:43;73.50;58.00;35.00
69349;PMS5003;64554;43.452;4.934;2023-02-15T07:15:14;69.75;54.75;33.00
69349;PMS5003;64554;43.452;4.934;2023-02-15T07:17:41;66.60;53.00;34.60
69349;PMS5003;64554;43.452;4.934;2023-02-15T07:20:15;70.00;55.25;32.25
69349;PMS5003;64554;43.452;4.934;2023-02-15T07:22:42;69.00;53.75;34.00
69349;PMS5003;64554;43.452;4.934;2023-02-15T07:25:09;62.60;51.00;30.20
69349;PMS5003;64554;43.452;4.934;2023-02-15T07:27:36;54.50;45.00;28.00
69349;PMS5003;64554;43.452;4.934;2023-02-15T07:30:03;64.50;52.00;32.50
69349;PMS5003;64554;43.452;4.934;2023-02-15T07:32:31;66.50;53.00;33.00
69349;PMS5003;64554;43.452;4.934;2023-02-15T07:34:58;75.50;66.00;39.25
69349;PMS5003;64554;43.452;4.934;2023-02-15T07:37:25;70.75;60.25;35.75
69349;PMS5003;64554;43.452;4.934;2023-02-15T07:39:52;78.40;73.20;42.00
69349;PMS5003;64554;43.452;4.934;2023-02-15T07:42:18;74.75;65.50;38.25
69349;PMS5003;64554;43.452;4.934;2023-02-15T07:44:46;66.60;52.00;34.40
69349;PMS5003;64554;43.452;4.934;2023-02-15T07:47:12;61.60;49.20;30.60
69349;PMS5003;64554;43.452;4.934;2023-02-15T07:49:39;53.80;44.40;28.00
69349;PMS5003;64554;43.452;4.934;2023-02-15T07:52:05;55.80;45.40;27.40
69349;PMS5003;64554;43.452;4.934;2023-02-15T07:54:32;56.00;45.00;28.00
69349;PMS5003;64554;43.452;4.934;2023-02-15T07:56:59;55.00;45.00;30.40
69349;PMS5003;64554;43.452;4.934;2023-02-15T07:59:26;57.25;46.75;28.50
69349;PMS5003;64554;43.452;4.934;2023-02-15T08:01:53;61.00;48.60;30.20
69349;PMS5003;64554;43.452;4.934;2023-02-15T08:04:22;72.25;61.00;37.50
69349;PMS5003;64554;43.452;4.934;2023-02-15T08:06:51;64.75;51.75;33.00
69349;PMS5003;64554;43.452;4.934;2023-02-15T08:09:17;65.75;51.50;32.75
69349;PMS5003;64554;43.452;4.934;2023-02-15T08:11:44;62.25;50.50;31.00
69349;PMS5003;64554;43.452;4.934;2023-02-15T08:14:11;59.00;47.75;29.25
69349;PMS5003;64554;43.452;4.934;2023-02-15T08:19:09;57.25;47.75;30.75
69349;PMS5003;64554;43.452;4.934;2023-02-15T08:21:37;58.00;45.75;29.50
69349;PMS5003;64554;43.452;4.934;2023-02-15T08:24:04;58.00;48.25;29.50
69349;PMS5003;64554;43.452;4.934;2023-02-15T08:26:31;64.00;50.67;31.67
69349;PMS5003;64554;43.452;4.934;2023-02-15T08:28:58;64.00;52.00;33.00
69349;PMS5003;64554;43.452;4.934;2023-02-15T08:31:25;64.00;50.00;30.25
69349;PMS5003;64554;43.452;4.934;2023-02-15T08:33:53;57.20;45.00;28.20
69349;PMS5003;64554;43.452;4.934;2023-02-15T08:36:21;62.00;49.25;30.25
69349;PMS5003;64554;43.452;4.934;2023-02-15T08:38:48;62.25;48.50;30.50
69349;PMS5003;64554;43.452;4.934;2023-02-15T08:41:18;66.25;52.00;31.00
69349;PMS5003;64554;43.452;4.934;2023-02-15T08:43:46;57.00;45.00;29.00
69349;PMS5003;64554;43.452;4.934;2023-02-15T08:46:13;55.00;46.00;28.00
69349;PMS5003;64554;43.452;4.934;2023-02-15T08:48:41;64.00;46.50;28.25
69349;PMS5003;64554;43.452;4.934;2023-02-15T08:51:08;48.50;41.00;25.25
69349;PMS5003;64554;43.452;4.934;2023-02-15T08:53:37;47.00;39.75;24.50
69349;PMS5003;64554;43.452;4.934;2023-02-15T08:56:04;45.00;38.00;24.80
69349;PMS5003;64554;43.452;4.934;2023-02-15T08:58:31;49.00;40.00;25.00
69349;PMS5003;64554;43.452;4.934;2023-02-15T09:00:58;46.00;39.40;24.00
69349;PMS5003;64554;43.452;4.934;2023-02-15T09:03:25;64.80;48.20;27.60
69349;PMS5003;64554;43.452;4.934;2023-02-15T09:05:56;65.25;48.75;27.25
69349;PMS5003;64554;43.452;4.934;2023-02-15T09:08:22;40.75;36.00;23.25
69349;PMS5003;64554;43.452;4.934;2023-02-15T09:10:49;42.50;36.00;23.75
69349;PMS5003;64554;43.452;4.934;2023-02-15T09:13:15;50.75;40.50;24.00
69349;PMS5003;64554;43.452;4.934;2023-02-15T09:15:41;72.60;53.40;31.20
69349;PMS5003;64554;43.452;4.934;2023-02-15T09:18:08;50.40;41.00;24.00
69349;PMS5003;64554;43.452;4.934;2023-02-15T09:20:35;45.00;37.25;23.00
69349;PMS5003;64554;43.452;4.934;2023-02-15T09:23:02;46.00;38.50;23.50
69349;PMS5003;64554;43.452;4.934;2023-02-15T09:25:29;43.00;38.00;23.00
69349;PMS5003;64554;43.452;4.934;2023-02-15T09:27:55;41.00;34.00;23.00
69349;PMS5003;64554;43.452;4.934;2023-02-15T09:30:22;51.50;43.50;26.00
69349;PMS5003;64554;43.452;4.934;2023-02-15T09:32:48;44.50;38.00;23.00
69349;PMS5003;64554;43.452;4.934;2023-02-15T09:35:15;35.40;33.00;22.00
69349;PMS5003;64554;43.452;4.934;2023-02-15T09:37:42;59.00;47.00;29.00
69349;PMS5003;64554;43.452;4.934;2023-02-15T09:40:08;171.40;158.80;78.60
69349;PMS5003;64554;43.452;4.934;2023-02-15T09:43:00;95.00;89.60;46.00
69349;PMS5003;64554;43.452;4.934;2023-02-15T09:45:41;47.60;39.00;25.60
69349;PMS5003;64554;43.452;4.934;2023-02-15T09:48:58;52.75;41.00;24.50
69349;PMS5003;64554;43.452;4.934;2023-02-15T10:15:09;50.60;41.40;24.00
69349;PMS5003;64554;43.452;4.934;2023-02-15T10:26:38;53.00;44.00;28.00
69349;PMS5003;64554;43.452;4.934;2023-02-15T10:28:49;75.60;61.40;35.00
69349;PMS5003;64554;43.452;4.934;2023-02-15T10:31:23;37.00;34.00;22.00
69349;PMS5003;64554;43.452;4.934;2023-02-15T10:34:01;55.50;45.25;27.50
69349;PMS5003;64554;43.452;4.934;2023-02-15T10:39:27;41.20;36.20;23.60
69349;PMS5003;64554;43.452;4.934;2023-02-15T10:42:02;36.00;33.00;21.50
69349;PMS5003;64554;43.452;4.934;2023-02-15T10:53:04;36.50;33.00;21.00
69349;PMS5003;64554;43.452;4.934;2023-02-15T11:00:47;28.00;28.00;18.80
69349;PMS5003;64554;43.452;4.934;2023-02-15T11:08:17;31.80;30.20;21.60
69349;PMS5003;64554;43.452;4.934;2023-02-15T11:10:54;29.50;28.00;20.00
69349;PMS5003;64554;43.452;4.934;2023-02-15T11:13:22;23.00;19.00;13.50
69349;PMS5003;64554;43.452;4.934;2023-02-15T11:15:53;19.00;19.00;14.00
69349;PMS5003;64554;43.452;4.934;2023-02-15T11:20:55;17.00;17.00;12.40
69349;PMS5003;64554;43.452;4.934;2023-02-15T11:23:24;20.50;19.00;13.50
69349;PMS5003;64554;43.452;4.934;2023-02-15T11:25:58;18.50;18.25;12.00
69349;PMS5003;64554;43.452;4.934;2023-02-15T11:28:37;13.00;13.00;10.00
69349;PMS5003;64554;43.452;4.934;2023-02-15T11:33:59;27.00;27.00;16.00
69349;PMS5003;64554;43.452;4.934;2023-02-15T11:36:28;16.00;16.00;12.00
69349;PMS5003;64554;43.452;4.934;2023-02-15T11:38:58;20.80;20.40;14.40
69349;PMS5003;64554;43.452;4.934;2023-02-15T11:41:28;22.20;20.60;13.00
69349;PMS5003;64554;43.452;4.934;2023-02-15T11:44:06;11.20;11.20;8.80
69349;PMS5003;64554;43.452;4.934;2023-02-15T11:46:37;11.00;11.00;8.00
69349;PMS5003;64554;43.452;4.934;2023-02-15T11:49:27;15.60;14.00;9.60
69349;PMS5003;64554;43.452;4.934;2023-02-15T11:51:50;11.00;10.00;8.00
69349;PMS5003;64554;43.452;4.934;2023-02-15T11:54:19;12.00;11.75;8.75
69349;PMS5003;64554;43.452;4.934;2023-02-15T11:56:47;9.00;9.00;7.00
69349;PMS5003;64554;43.452;4.934;2023-02-15T11:59:17;14.00;12.00;9.00
69349;PMS5003;64554;43.452;4.934;2023-02-15T12:01:45;11.25;11.25;7.75
69349;PMS5003;64554;43.452;4.934;2023-02-15T12:04:26;13.00;13.00;9.20
69349;PMS5003;64554;43.452;4.934;2023-02-15T12:06:57;10.00;10.00;8.00
69349;PMS5003;64554;43.452;4.934;2023-02-15T12:11:55;16.60;16.20;10.00
69349;PMS5003;64554;43.452;4.934;2023-02-15T12:14:48;19.00;19.00;14.00
69349;PMS5003;64554;43.452;4.934;2023-02-15T12:17:15;13.25;12.25;9.25
69349;PMS5003;64554;43.452;4.934;2023-02-15T12:19:42;14.75;14.75;7.75
69349;PMS5003;64554;43.452;4.934;2023-02-15T12:22:18;14.50;13.00;9.00
69349;PMS5003;64554;43.452;4.934;2023-02-15T12:24:47;14.00;12.00;10.00
69349;PMS5003;64554;43.452;4.934;2023-02-15T12:27:15;11.40;11.40;8.80
69349;PMS5003;64554;43.452;4.934;2023-02-15T12:29:43;13.80;12.40;9.40
69349;PMS5003;64554;43.452;4.934;2023-02-15T12:32:47;11.00;11.00;8.75
69349;PMS5003;64554;43.452;4.934;2023-02-15T12:35:09;17.00;15.50;11.00
69349;PMS5003;64554;43.452;4.934;2023-02-15T12:37:39;14.00;14.00;10.50
69349;PMS5003;64554;43.452;4.934;2023-02-15T12:40:23;17.00;15.50;10.00
69349;PMS5003;64554;43.452;4.934;2023-02-15T12:42:50;11.80;11.80;8.00
69349;PMS5003;64554;43.452;4.934;2023-02-15T12:45:27;12.75;12.75;7.75
69349;PMS5003;64554;43.452;4.934;2023-02-15T12:50:50;17.00;15.80;7.60
69349;PMS5003;64554;43.452;4.934;2023-02-15T12:53:21;13.25;12.00;9.00
69349;PMS5003;64554;43.452;4.934;2023-02-15T12:56:01;11.00;11.00;8.00
69349;PMS5003;64554;43.452;4.934;2023-02-15T12:58:29;8.00;8.00;7.00
69349;PMS5003;64554;43.452;4.934;2023-02-15T13:03:35;16.20;12.20;7.40
69349;PMS5003;64554;43.452;4.934;2023-02-15T13:06:02;11.50;11.50;6.75
69349;PMS5003;64554;43.452;4.934;2023-02-15T13:08:34;15.80;15.80;11.00
69349;PMS5003;64554;43.452;4.934;2023-02-15T13:11:02;12.50;12.50;9.75
69349;PMS5003;64554;43.452;4.934;2023-02-15T13:13:31;15.80;15.00;10.40
69349;PMS5003;64554;43.452;4.934;2023-02-15T13:15:58;15.75;14.50;10.00
69349;PMS5003;64554;43.452;4.934;2023-02-15T13:20:53;15.40;15.00;11.00
69349;PMS5003;64554;43.452;4.934;2023-02-15T13:23:23;15.60;15.60;11.60
69349;PMS5003;64554;43.452;4.934;2023-02-15T13:25:51;17.00;16.00;12.00
69349;PMS5003;64554;43.452;4.934;2023-02-15T13:28:18;16.75;14.00;8.00
69349;PMS5003;64554;43.452;4.934;2023-02-15T13:30:47;18.50;16.50;11.50
69349;PMS5003;64554;43.452;4.934;2023-02-15T13:41:03;15.60;15.60;11.20
69349;PMS5003;64554;43.452;4.934;2023-02-15T13:48:44;15.67;14.00;10.00
69349;PMS5003;64554;43.452;4.934;2023-02-15T13:51:21;14.00;14.00;8.25
69349;PMS5003;64554;43.452;4.934;2023-02-15T13:53:53;9.75;9.75;7.75
69349;PMS5003;64554;43.452;4.934;2023-02-15T13:56:43;14.00;12.60;9.00
69349;PMS5003;64554;43.452;4.934;2023-02-15T13:59:28;14.60;14.60;10.60
69349;PMS5003;64554;43.452;4.934;2023-02-15T14:01:57;12.75;12.75;8.25
69349;PMS5003;64554;43.452;4.934;2023-02-15T14:12:34;16.00;15.00;9.00
69349;PMS5003;64554;43.452;4.934;2023-02-15T14:19:57;12.00;12.00;9.00
69349;PMS5003;64554;43.452;4.934;2023-02-15T14:24:59;13.80;13.80;11.00
69349;PMS5003;64554;43.452;4.934;2023-02-15T14:27:56;13.25;13.25;9.00
69349;PMS5003;64554;43.452;4.934;2023-02-15T14:30:19;12.00;11.80;7.00
69349;PMS5003;64554;43.452;4.934;2023-02-15T14:33:00;12.00;12.00;9.00
69349;PMS5003;64554;43.452;4.934;2023-02-15T14:35:30;13.00;13.00;9.00
69349;PMS5003;64554;43.452;4.934;2023-02-15T14:53:59;13.40;13.40;9.40
69349;PMS5003;64554;43.452;4.934;2023-02-15T14:56:25;11.00;10.80;8.20
69349;PMS5003;64554;43.452;4.934;2023-02-15T15:03:53;11.40;11.40;8.00
69349;PMS5003;64554;43.452;4.934;2023-02-15T15:06:24;14.00;14.00;7.50
69349;PMS5003;64554;43.452;4.934;2023-02-15T15:08:51;10.25;10.25;8.00
69349;PMS5003;64554;43.452;4.934;2023-02-15T15:14:09;11.00;11.00;8.00
69349;PMS5003;64554;43.452;4.934;2023-02-15T15:19:04;12.60;12.20;7.00
69349;PMS5003;64554;43.452;4.934;2023-02-15T15:29:49;12.00;11.00;7.00
69349;PMS5003;64554;43.452;4.934;2023-02-15T15:32:15;10.00;10.00;8.00
69349;PMS5003;64554;43.452;4.934;2023-02-15T15:34:51;11.00;11.00;8.00
69349;PMS5003;64554;43.452;4.934;2023-02-15T15:48:32;11.00;10.00;7.00
69349;PMS5003;64554;43.452;4.934;2023-02-15T15:51:04;11.50;11.50;8.50
69349;PMS5003;64554;43.452;4.934;2023-02-15T15:53:33;11.00;11.00;8.50
69349;PMS5003;64554;43.452;4.934;2023-02-15T15:56:05;12.20;12.20;9.20
69349;PMS5003;64554;43.452;4.934;2023-02-15T15:58:33;12.40;12.40;8.40
69349;PMS5003;64554;43.452;4.934;2023-02-15T16:01:08;13.80;13.80;9.80
69349;PMS5003;64554;43.452;4.934;2023-02-15T16:03:35;11.40;11.40;8.40
69349;PMS5003;64554;43.452;4.934;2023-02-15T16:06:02;12.00;10.00;7.40
69349;PMS5003;64554;43.452;4.934;2023-02-15T16:08:33;14.40;13.00;8.00
69349;PMS5003;64554;43.452;4.934;2023-02-15T16:11:00;12.60;12.60;10.00
69349;PMS5003;64554;43.452;4.934;2023-02-15T16:13:33;13.80;12.00;9.00
69349;PMS5003;64554;43.452;4.934;2023-02-15T16:16:00;11.75;10.75;8.00
69349;PMS5003;64554;43.452;4.934;2023-02-15T16:18:27;11.50;10.00;7.00
69349;PMS5003;64554;43.452;4.934;2023-02-15T16:20:57;16.00;15.00;10.00
69349;PMS5003;64554;43.452;4.934;2023-02-15T16:28:33;10.25;10.25;7.50
69349;PMS5003;64554;43.452;4.934;2023-02-15T16:31:13;16.00;16.00;9.00
69349;PMS5003;64554;43.452;4.934;2023-02-15T16:33:41;16.00;13.00;9.00
69349;PMS5003;64554;43.452;4.934;2023-02-15T16:39:16;28.40;22.00;14.00
69349;PMS5003;64554;43.452;4.934;2023-02-15T16:41:44;26.60;24.60;15.40
69349;PMS5003;64554;43.452;4.934;2023-02-15T16:44:21;23.00;20.50;15.00
69349;PMS5003;64554;43.452;4.934;2023-02-15T16:46:48;37.00;30.80;19.60
69349;PMS5003;64554;43.452;4.934;2023-02-15T16:49:19;26.60;22.60;15.00
69349;PMS5003;64554;43.452;4.934;2023-02-15T16:52:03;36.33;28.33;17.00
69349;PMS5003;64554;43.452;4.934;2023-02-15T16:54:35;22.50;22.25;16.00
69349;PMS5003;64554;43.452;4.934;2023-02-15T16:57:02;25.25;24.25;12.00
69349;PMS5003;64554;43.452;4.934;2023-02-15T16:59:31;16.00;14.00;10.00
69349;PMS5003;64554;43.452;4.934;2023-02-15T17:01:58;18.00;14.80;9.80
69349;PMS5003;64554;43.452;4.934;2023-02-15T17:04:29;15.20;13.20;9.00
69349;PMS5003;64554;43.452;4.934;2023-02-15T17:07:00;14.00;14.00;10.00
69349;PMS5003;64554;43.452;4.934;2023-02-15T17:09:26;14.40;14.40;8.40